Time;durP1;ratioP1;P1;durP2;ratioP2;P2;SDS_P1;SDS_P2;PMS_P1;PMS_P2;Temp;Humidity;BMP_temperature;BMP_pressure;BME280_temperature;BME280_humidity;BME280_pressure;Samples;Min_cycle;Max_cycle;Signal;HPM_P1;HPM_P2
2022/03/29 00:00:44;;;;;;;10.20;8.20;;;10.20;99.90;;;;;;5075830;28;20667;-67
2022/03/29 00:03:11;;;;;;;10.57;9.30;;;9.90;99.90;;;;;;5076249;28;20200;-68
2022/03/29 00:05:38;;;;;;;12.43;9.07;;;9.80;99.90;;;;;;5075836;28;20235;-67
2022/03/29 00:08:04;;;;;;;13.18;9.50;;;9.80;99.90;;;;;;5076010;28;20272;-68
2022/03/29 00:10:31;;;;;;;12.35;9.75;;;9.50;99.90;;;;;;5075551;28;20204;-68
2022/03/29 00:12:57;;;;;;;11.30;10.05;;;9.50;99.90;;;;;;5075729;28;20200;-68
2022/03/29 00:15:39;;;;;;;12.70;9.93;;;9.50;99.90;;;;;;5076013;28;20180;-68
2022/03/29 00:18:05;;;;;;;17.80;11.43;;;9.40;99.90;;;;;;5076190;28;20212;-67
2022/03/29 00:20:32;;;;;;;15.90;11.45;;;9.40;99.90;;;;;;5076353;28;20207;-68
2022/03/29 00:23:05;;;;;;;14.40;11.10;;;9.40;99.90;;;;;;5076059;28;20257;-67
2022/03/29 00:25:32;;;;;;;12.43;10.20;;;9.40;99.90;;;;;;5076238;28;20224;-67
2022/03/29 00:27:59;;;;;;;13.07;9.75;;;9.50;99.90;;;;;;5076185;28;20200;-68
2022/03/29 00:30:26;;;;;;;13.32;10.82;;;9.40;99.90;;;;;;5075934;28;20206;-67
2022/03/29 00:32:53;;;;;;;11.82;10.45;;;9.20;99.90;;;;;;5075834;28;20195;-68
2022/03/29 00:35:20;;;;;;;16.23;10.68;;;9.00;99.90;;;;;;5075873;28;20237;-68
2022/03/29 00:37:48;;;;;;;15.07;10.55;;;8.80;99.90;;;;;;5075657;28;20658;-65
2022/03/29 00:40:14;;;;;;;18.63;11.00;;;8.70;99.90;;;;;;5075611;28;20212;-68
2022/03/29 00:42:41;;;;;;;14.80;9.88;;;8.50;99.90;;;;;;5075587;28;20225;-68
2022/03/29 00:45:08;;;;;;;13.38;10.80;;;8.50;99.90;;;;;;5075292;28;20227;-67
2022/03/29 00:47:35;;;;;;;13.45;9.68;;;8.50;99.90;;;;;;5074110;28;20208;-68
2022/03/29 00:50:02;;;;;;;13.13;10.00;;;8.30;99.90;;;;;;5075546;28;20203;-68
2022/03/29 00:52:29;;;;;;;13.32;10.48;;;8.50;99.90;;;;;;5075599;28;20248;-68
2022/03/29 00:54:55;;;;;;;12.60;10.05;;;8.50;99.90;;;;;;5074959;28;20214;-68
2022/03/29 00:57:22;;;;;;;12.75;10.00;;;8.50;99.90;;;;;;5075196;28;20627;-67
2022/03/29 00:59:50;;;;;;;13.43;9.25;;;8.70;99.90;;;;;;5074895;28;20280;-67
2022/03/29 01:02:17;;;;;;;11.43;10.23;;;8.70;99.90;;;;;;5075353;28;20602;-68
2022/03/29 01:04:43;;;;;;;14.57;10.68;;;8.80;99.90;;;;;;5075044;28;20232;-68
2022/03/29 01:07:10;;;;;;;13.50;10.82;;;8.90;99.90;;;;;;5075378;28;20219;-69
2022/03/29 01:09:37;;;;;;;16.67;10.75;;;8.90;99.90;;;;;;5075147;28;20204;-69
2022/03/29 01:12:04;;;;;;;12.70;10.20;;;8.90;99.90;;;;;;5075361;28;20680;-66
2022/03/29 01:14:31;;;;;;;10.95;9.45;;;8.80;99.90;;;;;;5075269;28;20528;-67
2022/03/29 01:19:45;;;;;;;23.52;11.07;;;8.80;99.90;;;;;;5075281;28;20536;-69
2022/03/29 01:22:12;;;;;;;15.20;10.65;;;8.60;99.90;;;;;;5074709;28;20603;-68
2022/03/29 01:24:43;;;;;;;11.98;9.20;;;8.60;99.90;;;;;;5074552;28;20211;-68
2022/03/29 01:27:12;;;;;;;13.73;9.32;;;8.50;99.90;;;;;;5074656;28;20537;-68
2022/03/29 01:29:39;;;;;;;12.60;10.05;;;8.60;99.90;;;;;;5074787;28;20199;-68
2022/03/29 01:32:09;;;;;;;15.05;9.48;;;8.60;99.90;;;;;;5074532;28;20207;-68
2022/03/29 01:34:39;;;;;;;17.63;10.25;;;8.50;99.90;;;;;;5074262;28;20663;-68
2022/03/29 01:37:07;;;;;;;14.75;10.68;;;8.50;99.90;;;;;;5074755;28;20180;-68
2022/03/29 01:39:34;;;;;;;13.05;9.77;;;8.30;99.90;;;;;;5074622;28;20490;-68
2022/03/29 01:42:03;;;;;;;15.65;9.65;;;8.30;99.90;;;;;;5074465;28;20261;-68
2022/03/29 01:44:29;;;;;;;13.05;9.68;;;8.20;99.90;;;;;;5074806;28;20206;-68
2022/03/29 01:46:56;;;;;;;10.70;9.60;;;8.20;99.90;;;;;;5075530;28;20619;-73
2022/03/29 01:49:22;;;;;;;14.63;9.77;;;8.10;99.90;;;;;;5074844;28;20203;-68
2022/03/29 01:51:49;;;;;;;16.20;9.38;;;8.10;99.90;;;;;;5072766;28;20620;-68
2022/03/29 01:54:15;;;;;;;14.52;10.40;;;8.10;99.90;;;;;;5074443;28;20248;-68
2022/03/29 01:56:42;;;;;;;13.32;10.18;;;8.10;99.90;;;;;;5074531;28;20200;-68
2022/03/29 01:59:11;;;;;;;12.00;8.75;;;8.00;99.90;;;;;;5073969;28;20269;-68
2022/03/29 02:01:48;;;;;;;14.93;10.93;;;8.10;99.90;;;;;;5073809;28;20208;-69
2022/03/29 02:04:16;;;;;;;12.57;9.02;;;8.10;99.90;;;;;;5073849;28;20245;-68
2022/03/29 02:06:43;;;;;;;13.45;10.07;;;8.10;99.90;;;;;;5073943;28;20251;-68
2022/03/29 02:09:13;;;;;;;17.50;10.70;;;8.10;99.90;;;;;;5073671;28;20545;-68
2022/03/29 02:11:42;;;;;;;14.82;10.75;;;8.20;99.90;;;;;;5073240;28;20204;-68
2022/03/29 02:14:09;;;;;;;11.98;10.43;;;8.20;99.90;;;;;;5074062;28;20199;-68
2022/03/29 02:16:36;;;;;;;12.15;10.30;;;8.30;99.90;;;;;;5073929;28;20204;-68
2022/03/29 02:19:02;;;;;;;17.15;12.48;;;8.40;99.90;;;;;;5073503;28;20212;-68
2022/03/29 02:21:29;;;;;;;16.33;11.25;;;8.30;99.90;;;;;;5073626;28;20200;-68
2022/03/29 02:23:55;;;;;;;20.08;11.90;;;8.40;99.90;;;;;;5073546;28;20740;-68
2022/03/29 02:26:21;;;;;;;11.98;10.75;;;8.30;99.90;;;;;;5073615;28;20774;-69
2022/03/29 02:28:48;;;;;;;18.75;11.00;;;8.20;99.90;;;;;;5073919;28;20253;-68
2022/03/29 02:31:14;;;;;;;15.15;10.60;;;8.10;99.90;;;;;;5073829;28;20599;-68
2022/03/29 02:33:41;;;;;;;13.77;10.20;;;7.90;99.90;;;;;;5074009;28;20204;-68
2022/03/29 02:36:09;;;;;;;14.52;10.88;;;7.90;99.90;;;;;;5073832;28;20207;-67
2022/03/29 02:38:36;;;;;;;12.20;10.18;;;7.80;99.90;;;;;;5075214;28;20292;-68
2022/03/29 02:41:02;;;;;;;13.60;10.63;;;7.80;99.90;;;;;;5074477;28;20676;-69
2022/03/29 02:43:29;;;;;;;12.38;9.38;;;7.90;99.90;;;;;;5074107;28;20199;-68
2022/03/29 02:45:55;;;;;;;13.88;10.60;;;8.00;99.90;;;;;;5074101;28;20212;-68
2022/03/29 02:48:21;;;;;;;15.55;9.65;;;8.00;99.90;;;;;;5074306;28;20208;-67
2022/03/29 02:50:48;;;;;;;14.90;10.23;;;7.90;99.90;;;;;;5073984;28;20200;-68
2022/03/29 02:53:15;;;;;;;10.52;9.25;;;7.80;99.90;;;;;;5074205;28;20261;-68
2022/03/29 02:55:41;;;;;;;19.23;10.63;;;7.90;99.90;;;;;;5073929;28;20200;-68
2022/03/29 02:58:08;;;;;;;11.60;9.55;;;7.90;99.90;;;;;;5073945;28;20200;-68
2022/03/29 03:00:35;;;;;;;13.20;10.20;;;7.80;99.90;;;;;;5074176;28;20208;-67
2022/03/29 03:03:03;;;;;;;12.50;9.98;;;7.80;99.90;;;;;;5074468;28;20234;-67
2022/03/29 03:05:29;;;;;;;12.02;8.80;;;7.70;99.90;;;;;;5073495;28;20227;-68
2022/03/29 03:07:56;;;;;;;9.85;8.48;;;7.60;99.90;;;;;;5074210;28;20207;-68
2022/03/29 03:10:23;;;;;;;14.75;9.95;;;7.50;99.90;;;;;;5074129;28;20203;-68
2022/03/29 03:12:50;;;;;;;12.13;9.45;;;7.50;99.90;;;;;;5074356;28;20587;-68
2022/03/29 03:15:19;;;;;;;14.77;9.57;;;7.40;99.90;;;;;;5074728;28;20203;-67
2022/03/29 03:17:46;;;;;;;14.05;10.00;;;7.40;99.90;;;;;;5074340;28;20218;-68
2022/03/29 03:20:14;;;;;;;11.65;9.15;;;7.50;99.90;;;;;;5074968;28;20210;-68
2022/03/29 03:22:40;;;;;;;13.20;10.55;;;7.40;99.90;;;;;;5075811;28;20202;-68
2022/03/29 03:25:07;;;;;;;13.38;9.75;;;7.40;99.90;;;;;;5078307;28;20192;-67
2022/03/29 03:27:36;;;;;;;11.38;9.95;;;7.50;99.90;;;;;;5078806;28;20207;-68
2022/03/29 03:30:05;;;;;;;11.25;9.95;;;7.60;99.90;;;;;;5078834;28;20192;-68
2022/03/29 03:32:31;;;;;;;12.73;10.10;;;7.70;99.90;;;;;;5078770;28;20199;-67
2022/03/29 03:34:57;;;;;;;12.00;10.48;;;7.80;99.90;;;;;;5079176;28;20200;-67
2022/03/29 03:37:26;;;;;;;13.98;9.85;;;7.90;99.90;;;;;;5078493;28;20203;-68
2022/03/29 03:39:52;;;;;;;12.95;10.00;;;7.80;99.90;;;;;;5078119;28;20570;-68
2022/03/29 03:42:19;;;;;;;10.02;7.88;;;7.80;99.90;;;;;;5078288;28;20207;-68
2022/03/29 03:44:45;;;;;;;11.32;9.20;;;7.70;99.90;;;;;;5078583;28;20660;-71
2022/03/29 03:47:11;;;;;;;16.13;10.02;;;7.80;99.90;;;;;;5078947;28;20222;-67
2022/03/29 03:49:38;;;;;;;11.20;8.98;;;7.70;99.90;;;;;;5078956;28;20200;-67
2022/03/29 03:52:07;;;;;;;12.38;10.45;;;7.70;99.90;;;;;;5078767;28;20572;-67
2022/03/29 03:54:34;;;;;;;11.82;10.05;;;7.60;99.90;;;;;;5080191;28;20207;-67
2022/03/29 03:57:00;;;;;;;11.65;10.18;;;7.60;99.90;;;;;;5079142;28;20210;-67
2022/03/29 03:59:26;;;;;;;10.48;9.48;;;7.50;99.90;;;;;;5079840;28;20204;-67
2022/03/29 04:01:53;;;;;;;12.52;11.27;;;7.50;99.90;;;;;;5080899;28;20195;-67
2022/03/29 04:04:19;;;;;;;14.10;10.63;;;7.50;99.90;;;;;;5080701;28;20230;-67
2022/03/29 04:06:45;;;;;;;13.30;10.23;;;7.50;99.90;;;;;;5079579;28;20231;-67
2022/03/29 04:09:11;;;;;;;12.73;10.20;;;7.50;99.90;;;;;;5079264;28;20203;-67
2022/03/29 04:11:38;;;;;;;12.52;10.40;;;7.50;99.90;;;;;;5079999;28;20314;-67
2022/03/29 04:14:04;;;;;;;12.63;9.90;;;7.40;99.90;;;;;;5080001;28;20200;-68
2022/03/29 04:16:30;;;;;;;11.70;10.25;;;7.40;99.90;;;;;;5081015;28;20200;-67
2022/03/29 04:18:57;;;;;;;10.80;9.70;;;7.40;99.90;;;;;;5081853;28;20287;-67
2022/03/29 04:21:23;;;;;;;25.77;11.02;;;7.40;99.90;;;;;;5080793;28;20263;-67
2022/03/29 04:23:49;;;;;;;12.07;10.32;;;7.40;99.90;;;;;;5081118;28;20344;-67
2022/03/29 04:26:16;;;;;;;12.88;10.07;;;7.40;99.90;;;;;;5080883;28;20241;-67
2022/03/29 04:28:42;;;;;;;13.57;9.60;;;7.20;99.90;;;;;;5078992;28;20545;-67
2022/03/29 04:31:09;;;;;;;24.00;10.98;;;7.20;99.90;;;;;;5080316;28;20208;-67
2022/03/29 04:33:36;;;;;;;18.55;10.20;;;7.20;99.90;;;;;;5079964;28;20204;-67
2022/03/29 04:36:03;;;;;;;12.93;10.73;;;7.30;99.90;;;;;;5080632;28;20208;-67
2022/03/29 04:38:29;;;;;;;13.55;10.75;;;7.40;99.90;;;;;;5080832;28;20294;-67
2022/03/29 04:40:56;;;;;;;16.08;11.13;;;7.30;99.90;;;;;;5080708;28;20333;-67
2022/03/29 04:43:22;;;;;;;12.45;11.00;;;7.10;99.90;;;;;;5081145;28;20203;-67
2022/03/29 04:45:49;;;;;;;14.07;10.98;;;7.20;99.90;;;;;;5080801;28;20226;-67
2022/03/29 04:48:15;;;;;;;14.05;10.88;;;7.20;99.90;;;;;;5081136;28;20283;-68
2022/03/29 04:50:42;;;;;;;13.05;10.35;;;7.30;99.90;;;;;;5080636;28;20333;-67
2022/03/29 04:53:08;;;;;;;16.23;11.27;;;7.30;99.90;;;;;;5081493;28;20288;-67
2022/03/29 04:55:34;;;;;;;13.90;11.23;;;7.20;99.90;;;;;;5080959;28;20349;-67
2022/03/29 04:58:02;;;;;;;15.43;11.02;;;7.10;99.90;;;;;;5081049;28;20272;-67
2022/03/29 05:00:28;;;;;;;12.13;10.68;;;7.10;99.90;;;;;;5080581;28;20291;-68
2022/03/29 05:02:54;;;;;;;13.85;10.77;;;6.90;99.90;;;;;;5080250;28;20798;-67
2022/03/29 05:05:21;;;;;;;11.95;10.10;;;7.00;99.90;;;;;;5080427;28;20324;-66
2022/03/29 05:07:47;;;;;;;12.75;10.35;;;7.00;99.90;;;;;;5080075;28;20196;-66
2022/03/29 05:10:14;;;;;;;13.07;10.95;;;7.00;99.90;;;;;;5080737;28;20200;-66
2022/03/29 05:12:47;;;;;;;14.70;11.90;;;6.80;99.90;;;;;;5081259;28;20200;-66
2022/03/29 05:15:17;;;;;;;17.13;11.48;;;6.90;99.90;;;;;;5080974;28;20666;-66
2022/03/29 05:17:44;;;;;;;15.68;11.55;;;6.90;99.90;;;;;;5079273;28;20253;-68
2022/03/29 05:20:12;;;;;;;15.23;11.10;;;7.00;99.90;;;;;;5080045;28;20211;-67
2022/03/29 05:22:52;;;;;;;13.57;11.07;;;6.90;99.90;;;;;;5080238;28;20298;-67
2022/03/29 05:25:21;;;;;;;14.55;10.82;;;7.00;99.90;;;;;;5079908;28;20723;-67
2022/03/29 05:27:49;;;;;;;15.85;11.63;;;7.10;99.90;;;;;;5079365;28;20230;-67
2022/03/29 05:30:15;;;;;;;12.90;10.05;;;7.10;99.90;;;;;;5079820;28;20255;-67
2022/03/29 05:32:42;;;;;;;12.30;10.13;;;6.80;99.90;;;;;;5079531;28;20287;-67
2022/03/29 05:35:10;;;;;;;15.80;10.55;;;6.70;99.90;;;;;;5080059;28;20667;-67
2022/03/29 05:37:39;;;;;;;14.88;11.10;;;6.80;99.90;;;;;;5079207;28;20216;-67
2022/03/29 05:40:07;;;;;;;18.38;11.43;;;6.70;99.90;;;;;;5078880;28;20200;-68
2022/03/29 05:42:44;;;;;;;22.88;11.48;;;6.70;99.90;;;;;;5074357;28;20208;-68
2022/03/29 05:45:12;;;;;;;17.45;11.00;;;6.90;99.90;;;;;;5073368;28;21108;-68
2022/03/29 05:50:26;;;;;;;13.60;9.98;;;6.90;99.90;;;;;;5074210;28;20188;-68
2022/03/29 05:52:52;;;;;;;16.98;10.55;;;6.70;99.90;;;;;;5073831;28;20640;-68
2022/03/29 05:55:20;;;;;;;12.93;10.73;;;6.90;99.90;;;;;;5073604;28;20204;-68
2022/03/29 05:57:49;;;;;;;16.45;10.40;;;7.00;99.90;;;;;;5074490;28;20212;-68
2022/03/29 06:00:17;;;;;;;13.43;10.45;;;7.00;99.90;;;;;;5075592;28;20617;-71
2022/03/29 06:02:44;;;;;;;12.90;10.90;;;6.80;99.90;;;;;;5074052;28;20222;-68
2022/03/29 06:05:10;;;;;;;16.88;11.38;;;6.80;99.90;;;;;;5073691;28;20296;-69
2022/03/29 06:07:37;;;;;;;14.75;11.07;;;6.90;99.90;;;;;;5074891;28;20230;-69
2022/03/29 06:10:05;;;;;;;15.05;11.20;;;6.90;99.90;;;;;;5074892;28;20462;-69
2022/03/29 06:12:33;;;;;;;15.63;10.98;;;6.90;99.90;;;;;;5075178;28;20200;-69
2022/03/29 06:15:06;;;;;;;18.48;10.50;;;7.10;99.90;;;;;;5074800;28;20199;-69
2022/03/29 06:17:32;;;;;;;20.98;13.00;;;7.40;99.90;;;;;;5074804;28;20241;-69
2022/03/29 06:19:59;;;;;;;17.13;13.05;;;7.40;99.90;;;;;;5074969;28;20682;-69
2022/03/29 06:22:25;;;;;;;13.93;11.13;;;7.50;99.90;;;;;;5074468;28;20200;-69
2022/03/29 06:24:52;;;;;;;15.13;10.50;;;7.70;99.90;;;;;;5074353;28;20265;-69
2022/03/29 06:27:18;;;;;;;13.02;10.30;;;7.80;99.90;;;;;;5074345;28;20212;-67
2022/03/29 06:29:45;;;;;;;15.25;10.38;;;7.80;99.90;;;;;;5074106;28;20208;-66
2022/03/29 06:32:11;;;;;;;15.73;10.48;;;7.60;99.90;;;;;;5073868;28;20211;-67
2022/03/29 06:34:38;;;;;;;15.18;11.20;;;7.60;99.90;;;;;;5073300;28;20592;-68
2022/03/29 06:37:04;;;;;;;14.90;12.05;;;7.70;99.90;;;;;;5074553;28;20272;-67
2022/03/29 06:39:30;;;;;;;20.38;11.32;;;7.70;99.90;;;;;;5074191;28;20200;-67
2022/03/29 06:41:57;;;;;;;18.00;11.55;;;7.70;99.90;;;;;;5073920;28;20207;-68
2022/03/29 06:44:23;;;;;;;16.98;11.57;;;7.70;99.90;;;;;;5072582;28;20206;-68
2022/03/29 06:46:50;;;;;;;15.82;11.18;;;7.90;99.90;;;;;;5073891;28;20269;-68
2022/03/29 06:49:16;;;;;;;16.45;10.98;;;8.00;99.90;;;;;;5073174;28;20200;-69
2022/03/29 06:51:44;;;;;;;15.85;11.95;;;8.00;99.90;;;;;;5073207;28;20260;-68
2022/03/29 06:54:11;;;;;;;18.60;11.85;;;8.10;99.90;;;;;;5073256;28;20203;-68
2022/03/29 06:56:37;;;;;;;17.42;11.80;;;8.30;99.90;;;;;;5072878;28;20195;-68
2022/03/29 06:59:04;;;;;;;23.27;11.70;;;8.40;99.90;;;;;;5073261;28;20208;-68
2022/03/29 07:01:30;;;;;;;19.77;13.00;;;8.70;99.90;;;;;;5072826;28;20207;-68
2022/03/29 07:03:59;;;;;;;19.75;11.93;;;8.80;99.90;;;;;;5072746;28;20235;-68
2022/03/29 07:06:31;;;;;;;17.67;12.40;;;9.00;99.90;;;;;;5072912;28;20276;-68
2022/03/29 07:11:45;;;;;;;20.15;12.13;;;9.50;99.90;;;;;;5073497;28;20184;-68
2022/03/29 07:14:13;;;;;;;30.65;13.05;;;9.30;99.90;;;;;;5072394;28;20269;-68
2022/03/29 07:16:41;;;;;;;21.85;11.25;;;9.50;99.90;;;;;;5072799;28;20211;-68
2022/03/29 07:19:10;;;;;;;14.23;11.50;;;9.50;99.90;;;;;;5072988;28;20659;-69
2022/03/29 07:21:39;;;;;;;23.50;12.43;;;9.60;99.90;;;;;;5072845;28;20524;-69
2022/03/29 07:24:06;;;;;;;18.23;12.15;;;9.70;99.90;;;;;;5073246;28;20663;-69
2022/03/29 07:26:33;;;;;;;17.85;13.25;;;9.80;99.90;;;;;;5072565;28;20752;-69
2022/03/29 07:29:00;;;;;;;24.83;13.82;;;10.10;99.90;;;;;;5072942;28;20196;-69
2022/03/29 07:31:27;;;;;;;17.77;11.73;;;10.30;99.90;;;;;;5072918;28;20549;-69
2022/03/29 07:33:54;;;;;;;21.05;13.40;;;10.30;99.90;;;;;;5072480;28;20200;-69
2022/03/29 07:36:22;;;;;;;18.77;12.93;;;10.30;99.90;;;;;;5072954;28;20211;-69
2022/03/29 07:38:50;;;;;;;19.60;12.23;;;10.50;99.90;;;;;;5072194;28;20204;-69
2022/03/29 07:41:16;;;;;;;25.90;13.68;;;10.60;99.90;;;;;;5072305;28;20656;-69
2022/03/29 07:43:44;;;;;;;18.75;12.55;;;10.80;99.90;;;;;;5072406;28;20211;-69
2022/03/29 07:46:10;;;;;;;22.08;13.73;;;10.70;99.90;;;;;;5072446;28;20203;-69
2022/03/29 07:48:36;;;;;;;24.30;13.93;;;10.90;99.90;;;;;;5072699;28;20200;-67
2022/03/29 07:51:05;;;;;;;17.77;12.60;;;11.00;99.90;;;;;;5072920;28;20196;-67
2022/03/29 07:53:32;;;;;;;25.52;14.38;;;11.10;99.90;;;;;;5072934;28;20555;-68
2022/03/29 07:55:58;;;;;;;26.53;12.27;;;11.20;99.90;;;;;;5072193;28;20196;-68
2022/03/29 07:58:24;;;;;;;23.55;13.75;;;11.40;99.90;;;;;;5072381;28;20672;-68
2022/03/29 08:00:51;;;;;;;18.58;12.88;;;11.30;99.90;;;;;;5072283;28;20196;-68
2022/03/29 08:03:19;;;;;;;24.42;12.90;;;11.50;99.90;;;;;;5072361;28;20235;-68
2022/03/29 08:05:49;;;;;;;17.73;12.90;;;11.50;99.90;;;;;;5072638;28;20624;-68
2022/03/29 08:08:17;;;;;;;21.48;13.40;;;11.80;99.90;;;;;;5072479;28;20224;-69
2022/03/29 08:10:45;;;;;;;22.73;13.45;;;11.80;99.90;;;;;;5075436;28;20200;-69
2022/03/29 08:13:12;;;;;;;22.55;12.98;;;12.00;99.90;;;;;;5076000;28;20215;-69
2022/03/29 08:15:40;;;;;;;20.85;13.88;;;12.40;99.90;;;;;;5076095;28;20196;-69
2022/03/29 08:18:07;;;;;;;22.53;14.13;;;12.40;99.90;;;;;;5075942;28;20200;-69
2022/03/29 08:20:35;;;;;;;27.90;15.63;;;12.50;99.90;;;;;;5076076;28;20620;-69
2022/03/29 08:23:01;;;;;;;25.60;17.77;;;12.70;99.90;;;;;;5076500;28;20617;-68
2022/03/29 08:25:31;;;;;;;25.80;16.60;;;12.80;99.90;;;;;;5075510;28;20617;-69
2022/03/29 08:27:58;;;;;;;33.17;18.90;;;13.00;99.90;;;;;;5075943;28;20669;-69
2022/03/29 08:30:26;;;;;;;39.50;20.57;;;13.40;99.90;;;;;;5075976;28;20614;-69
2022/03/29 08:32:53;;;;;;;33.37;20.30;;;13.40;99.90;;;;;;5075795;28;20606;-69
2022/03/29 08:35:19;;;;;;;34.27;21.13;;;13.50;99.90;;;;;;5075923;28;20579;-68
2022/03/29 08:37:47;;;;;;;36.37;23.80;;;13.80;99.90;;;;;;5075585;28;20572;-68
2022/03/29 08:40:16;;;;;;;34.50;21.07;;;13.90;99.90;;;;;;5074339;28;21253;-68
2022/03/29 08:42:46;;;;;;;30.73;21.33;;;13.80;99.90;;;;;;5075639;28;20606;-68
2022/03/29 08:45:15;;;;;;;40.00;23.13;;;13.70;99.90;;;;;;5075456;28;21165;-68
2022/03/29 08:47:43;;;;;;;42.80;26.27;;;13.80;99.90;;;;;;5075163;28;20657;-68
2022/03/29 08:50:12;;;;;;;47.00;26.50;;;14.00;99.90;;;;;;5075542;28;20942;-68
2022/03/29 08:52:39;;;;;;;38.90;25.57;;;14.10;99.90;;;;;;5075980;28;20637;-68
2022/03/29 08:55:08;;;;;;;44.90;29.17;;;14.40;99.90;;;;;;5074989;28;20602;-68
2022/03/29 08:57:36;;;;;;;37.80;26.40;;;14.60;99.90;;;;;;5075049;28;21196;-68
2022/03/29 09:00:07;;;;;;;41.03;27.10;;;14.70;99.90;;;;;;5075276;28;20679;-69
2022/03/29 09:02:35;;;;;;;42.63;27.03;;;14.70;99.90;;;;;;5075454;28;20591;-69
2022/03/29 09:05:16;;;;;;;50.77;27.30;;;14.90;99.90;;;;;;5075987;28;20653;-69
2022/03/29 09:07:51;;;;;;;41.80;25.80;;;14.90;99.90;;;;;;5075852;28;20661;-69
2022/03/29 09:10:19;;;;;;;39.23;25.80;;;15.00;99.90;;;;;;5075129;28;21105;-69
2022/03/29 09:12:46;;;;;;;38.10;25.67;;;15.20;99.90;;;;;;5075274;28;20710;-69
2022/03/29 09:15:12;;;;;;;42.43;25.17;;;15.00;99.90;;;;;;5075595;28;20598;-69
2022/03/29 09:17:41;;;;;;;54.77;27.60;;;14.80;99.90;;;;;;5075002;28;20987;-69
2022/03/29 09:20:11;;;;;;;36.53;25.30;;;14.70;99.90;;;;;;5075676;28;20736;-69
2022/03/29 09:22:51;;;;;;;41.60;26.13;;;15.10;99.90;;;;;;5075307;28;20629;-69
2022/03/29 09:25:22;;;;;;;37.20;27.27;;;14.60;99.90;;;;;;5073618;28;20622;-69
2022/03/29 09:28:02;;;;;;;43.57;27.73;;;14.60;99.90;;;;;;5075140;28;20652;-69
2022/03/29 09:30:40;;;;;;;35.83;25.67;;;14.70;99.90;;;;;;5075170;28;20617;-69
2022/03/29 09:33:15;;;;;;;41.23;27.57;;;15.00;99.90;;;;;;5075741;28;20579;-69
2022/03/29 09:35:56;;;;;;;40.13;26.53;;;15.00;99.90;;;;;;5075784;28;20588;-69
2022/03/29 09:38:26;;;;;;;43.33;27.20;;;15.30;99.90;;;;;;5075124;28;20574;-69
2022/03/29 09:40:55;;;;;;;39.40;26.47;;;15.30;99.90;;;;;;5075378;28;20629;-69
2022/03/29 09:43:24;;;;;;;39.13;25.77;;;15.30;99.90;;;;;;5075208;28;20622;-69
2022/03/29 09:45:53;;;;;;;37.93;25.90;;;15.40;99.90;;;;;;5075055;28;21189;-68
2022/03/29 09:48:25;;;;;;;50.93;25.27;;;15.30;99.90;;;;;;5075648;28;20712;-69
2022/03/29 09:51:08;;;;;;;35.03;23.57;;;15.70;99.90;;;;;;5074819;28;20611;-69
2022/03/29 09:53:45;;;;;;;39.83;25.83;;;16.00;99.90;;;;;;5074385;28;20943;-69
2022/03/29 09:56:15;;;;;;;42.03;25.90;;;15.90;99.90;;;;;;5074629;28;20618;-69
2022/03/29 09:58:42;;;;;;;51.40;28.17;;;15.90;99.90;;;;;;5075118;28;20618;-68
2022/03/29 10:01:25;;;;;;;40.67;25.17;;;15.90;99.90;;;;;;5075341;28;21060;-68
2022/03/29 10:03:53;;;;;;;38.77;24.90;;;16.00;99.90;;;;;;5075350;28;20653;-68
2022/03/29 10:06:22;;;;;;;37.63;26.50;;;16.00;99.90;;;;;;5075315;28;21003;-68
2022/03/29 10:11:39;;;;;;;47.53;27.40;;;16.00;99.90;;;;;;5075033;28;20594;-68
2022/03/29 10:14:06;;;;;;;38.87;27.10;;;16.40;99.90;;;;;;5074840;28;20606;-68
2022/03/29 10:16:33;;;;;;;45.53;27.53;;;16.50;99.90;;;;;;5074776;28;20605;-68
2022/03/29 10:19:01;;;;;;;40.77;27.33;;;16.10;99.90;;;;;;5074952;28;20610;-68
2022/03/29 10:21:28;;;;;;;40.47;29.40;;;16.40;99.90;;;;;;5075428;28;20660;-68
2022/03/29 10:23:55;;;;;;;31.73;24.77;;;16.90;99.90;;;;;;5075237;28;20691;-68
2022/03/29 10:26:25;;;;;;;41.50;26.90;;;17.00;99.90;;;;;;5075491;28;20617;-68
2022/03/29 10:28:52;;;;;;;41.33;28.50;;;17.20;99.90;;;;;;5074888;28;20611;-69
2022/03/29 10:31:33;;;;;;;49.00;27.90;;;17.20;99.90;;;;;;5073927;28;20610;-68
2022/03/29 10:34:20;;;;;;;44.97;28.13;;;17.50;99.90;;;;;;5074472;28;20922;-69
2022/03/29 10:37:04;;;;;;;38.50;27.50;;;17.60;99.90;;;;;;5075012;28;20615;-68
2022/03/29 10:39:48;;;;;;;35.43;27.07;;;17.40;99.90;;;;;;5074849;28;21216;-68
2022/03/29 10:42:37;;;;;;;53.17;27.43;;;17.30;99.90;;;;;;5075139;28;20633;-68
2022/03/29 10:45:10;;;;;;;43.43;27.07;;;17.40;99.90;;;;;;5074076;28;20671;-68
2022/03/29 10:47:38;;;;;;;41.50;25.83;;;17.40;99.90;;;;;;5074095;28;20637;-68
2022/03/29 10:50:07;;;;;;;40.60;29.30;;;17.70;99.90;;;;;;5074200;28;20667;-71
2022/03/29 10:52:48;;;;;;;39.93;28.73;;;18.10;99.90;;;;;;5075027;28;20618;-69
2022/03/29 10:55:25;;;;;;;36.17;26.13;;;18.40;99.90;;;;;;5074824;28;21203;-69
2022/03/29 10:58:06;;;;;;;48.70;29.17;;;18.40;99.90;;;;;;5074786;28;20626;-69
2022/03/29 11:00:35;;;;;;;42.80;28.67;;;18.20;99.90;;;;;;5073414;28;20629;-69
2022/03/29 11:03:15;;;;;;;46.57;27.90;;;18.40;99.90;;;;;;5073089;28;20953;-69
2022/03/29 11:06:07;;;;;;;41.63;25.90;;;18.40;99.90;;;;;;5073268;28;20649;-69
2022/03/29 11:08:36;;;;;;;40.07;27.90;;;18.60;99.90;;;;;;5074807;28;20633;-69
2022/03/29 11:11:04;;;;;;;36.70;26.33;;;18.50;1.00;;;;;;5074028;28;20667;-69
2022/03/29 11:13:37;;;;;;;41.00;27.47;;;18.70;2.10;;;;;;5074421;28;21259;-69
2022/03/29 11:16:25;;;;;;;46.03;29.80;;;18.50;1.00;;;;;;5074993;28;20615;-69
2022/03/29 11:18:52;;;;;;;40.50;27.67;;;18.40;1.00;;;;;;5077681;28;20614;-69
2022/03/29 11:21:34;;;;;;;38.97;27.30;;;18.70;27.70;;;;;;5078922;28;20708;-69
2022/03/29 11:24:03;;;;;;;40.17;28.17;;;18.80;99.90;;;;;;5081896;28;20578;-69
2022/03/29 11:26:30;;;;;;;36.37;27.30;;;18.90;99.90;;;;;;5078969;28;20626;-70
2022/03/29 11:28:59;;;;;;;38.93;27.40;;;18.70;1.00;;;;;;5076799;28;20650;-70
2022/03/29 11:31:37;;;;;;;40.70;26.90;;;19.00;99.90;;;;;;5079522;28;20622;-69
2022/03/29 11:34:04;;;;;;;40.50;28.20;;;19.90;1.00;;;;;;5079541;28;20583;-69
2022/03/29 11:36:35;;;;;;;39.43;27.70;;;20.40;99.90;;;;;;5077907;28;20610;-69
2022/03/29 11:39:01;;;;;;;38.93;27.23;;;20.30;1.00;;;;;;5076875;28;20575;-70
2022/03/29 11:41:29;;;;;;;38.60;26.03;;;20.20;99.90;;;;;;5076223;28;20618;-69
2022/03/29 11:43:59;;;;;;;36.60;26.70;;;19.80;99.90;;;;;;5075902;28;20614;-68
2022/03/29 11:46:53;;;;;;;37.97;24.23;;;20.00;99.90;;;;;;5077555;28;20606;-69
2022/03/29 11:49:22;;;;;;;35.40;24.27;;;20.00;99.90;;;;;;5078810;28;20981;-68
2022/03/29 11:52:16;;;;;;;36.57;24.13;;;19.70;99.90;;;;;;5079782;28;20618;-69
2022/03/29 11:54:49;;;;;;;36.77;24.90;;;20.10;99.90;;;;;;5080069;28;20761;-69
2022/03/29 11:57:19;;;;;;;35.33;24.60;;;20.30;99.90;;;;;;5080301;28;20984;-69
2022/03/29 11:59:46;;;;;;;39.03;25.67;;;20.50;99.90;;;;;;5078762;28;20616;-69
2022/03/29 12:02:12;;;;;;;34.40;25.20;;;20.60;99.90;;;;;;5079628;28;20626;-69
2022/03/29 12:04:39;;;;;;;33.13;23.20;;;20.70;99.90;;;;;;5077650;28;20653;-69
2022/03/29 12:07:06;;;;;;;37.43;25.40;;;20.50;99.90;;;;;;5081491;28;20730;-69
2022/03/29 12:09:32;;;;;;;39.27;27.70;;;20.90;99.90;;;;;;5079169;28;20962;-70
2022/03/29 12:12:01;;;;;;;38.07;27.67;;;20.40;99.90;;;;;;5078070;28;20654;-68
2022/03/29 12:14:31;;;;;;;44.90;26.27;;;19.80;99.90;;;;;;5080503;28;21075;-69
2022/03/29 12:17:03;;;;;;;41.10;27.50;;;19.90;99.90;;;;;;5079109;28;20626;-69
2022/03/29 12:19:32;;;;;;;39.53;26.23;;;20.30;99.90;;;;;;5078868;28;20984;-68
2022/03/29 12:22:08;;;;;;;35.57;25.43;;;20.10;99.90;;;;;;5078089;28;20614;-69
2022/03/29 12:24:42;;;;;;;39.30;27.17;;;20.00;99.90;;;;;;5079766;28;20570;-69
2022/03/29 12:27:14;;;;;;;37.00;27.60;;;20.30;99.90;;;;;;5077622;28;21184;-70
2022/03/29 12:29:53;;;;;;;38.90;26.47;;;20.60;99.90;;;;;;5078054;28;20673;-69
2022/03/29 12:32:21;;;;;;;37.80;26.97;;;20.20;99.90;;;;;;5077744;28;21172;-69
2022/03/29 12:34:59;;;;;;;39.10;25.17;;;20.10;99.90;;;;;;5077687;28;20613;-69
2022/03/29 12:37:27;;;;;;;44.10;27.03;;;20.20;99.90;;;;;;5079719;28;20618;-69
2022/03/29 12:40:00;;;;;;;35.13;27.10;;;20.70;99.90;;;;;;5080633;28;20709;-68
2022/03/29 12:42:32;;;;;;;35.43;24.87;;;20.30;99.90;;;;;;5079709;28;20579;-69
2022/03/29 12:45:00;;;;;;;41.00;28.70;;;20.50;99.90;;;;;;5078331;28;20701;-69
2022/03/29 12:47:31;;;;;;;37.90;26.50;;;20.10;99.90;;;;;;5078038;28;20664;-69
2022/03/29 12:49:57;;;;;;;39.27;25.80;;;20.50;99.90;;;;;;5078290;28;20622;-69
2022/03/29 12:52:24;;;;;;;38.03;26.67;;;20.60;99.90;;;;;;5078282;28;20614;-69